Time;durP1;ratioP1;P1;durP2;ratioP2;P2;SDS_P1;SDS_P2;PMS_P1;PMS_P2;Temp;Humidity;BMP_temperature;BMP_pressure;BME280_temperature;BME280_humidity;BME280_pressure;Samples;Min_cycle;Max_cycle;Signal;HPM_P1;HPM_P2
2023/06/29 00:02:05;;;;;;;5.90;4.90;;;;;;;15.86;67.77;95124.97;5087426;28;20040;-77
2023/06/29 00:04:32;;;;;;;6.50;5.32;;;;;;;15.84;67.74;95118.38;5086687;28;20047;-77
2023/06/29 00:07:01;;;;;;;6.60;5.45;;;;;;;15.86;67.83;95129.75;5087263;28;20058;-77
2023/06/29 00:09:27;;;;;;;6.53;5.72;;;;;;;15.85;67.64;95139.31;5087694;28;20020;-76
2023/06/29 00:11:52;;;;;;;9.20;4.97;;;;;;;15.83;67.79;95136.22;5086956;28;20395;-75
2023/06/29 00:14:17;;;;;;;6.72;5.03;;;;;;;15.85;67.56;95128.97;5091955;28;20565;-77
2023/06/29 00:16:43;;;;;;;6.65;5.30;;;;;;;15.86;67.58;95133.28;5090038;28;20043;-77
2023/06/29 00:19:08;;;;;;;6.32;5.32;;;;;;;15.85;67.36;95126.22;5091701;28;20048;-76
2023/06/29 00:21:34;;;;;;;7.15;5.35;;;;;;;15.86;67.48;95124.19;5088867;28;20084;-77
2023/06/29 00:23:59;;;;;;;6.05;5.18;;;;;;;15.87;67.31;95122.97;5091442;28;20028;-77
2023/06/29 00:26:28;;;;;;;5.80;4.70;;;;;;;15.82;67.79;95118.03;5091485;28;20027;-77
2023/06/29 00:28:53;;;;;;;6.05;5.03;;;;;;;15.82;67.74;95118.03;5091192;28;20012;-75
2023/06/29 00:31:22;;;;;;;7.20;5.35;;;;;;;15.81;67.56;95110.97;5091756;28;20027;-76
2023/06/29 00:33:47;;;;;;;6.45;5.55;;;;;;;15.80;67.63;95112.97;5090312;28;20024;-76
2023/06/29 00:36:13;;;;;;;6.68;5.30;;;;;;;15.78;67.83;95109.91;5091485;28;20028;-76
2023/06/29 00:38:38;;;;;;;5.57;4.90;;;;;;;15.78;67.63;95103.59;5090293;28;20020;-76
2023/06/29 00:41:03;;;;;;;5.55;4.93;;;;;;;15.75;67.62;95099.75;5091243;28;20035;-76
2023/06/29 00:43:29;;;;;;;6.50;5.30;;;;;;;15.75;67.75;95110.84;5090223;28;20479;-76
2023/06/29 00:45:54;;;;;;;10.60;5.32;;;;;;;15.69;67.52;95109.94;5090948;28;20024;-76
2023/06/29 00:48:20;;;;;;;5.35;4.60;;;;;;;15.72;67.50;95111.78;5090871;28;20028;-76
2023/06/29 00:50:45;;;;;;;5.38;4.72;;;;;;;15.71;67.42;95112.22;5088709;28;20028;-75
2023/06/29 00:53:10;;;;;;;6.88;4.90;;;;;;;15.69;67.83;95109.94;5091140;28;20077;-75
2023/06/29 00:55:36;;;;;;;5.68;5.10;;;;;;;15.70;67.58;95116.22;5088417;28;20108;-75
2023/06/29 00:58:02;;;;;;;5.53;4.78;;;;;;;15.68;67.55;95107.63;5089548;28;20106;-75
2023/06/29 01:00:27;;;;;;;7.78;5.00;;;;;;;15.75;67.10;95112.84;5089111;28;20093;-75
2023/06/29 01:02:52;;;;;;;6.18;5.18;;;;;;;15.73;67.23;95112.53;5090607;28;20103;-75
2023/06/29 01:05:18;;;;;;;8.68;5.20;;;;;;;15.71;67.46;95107.44;5088555;28;20036;-75
2023/06/29 01:08:00;;;;;;;5.90;5.10;;;;;;;15.67;67.36;95115.19;5089094;28;20101;-76
2023/06/29 01:10:27;;;;;;;6.68;5.80;;;;;;;15.65;66.96;95114.84;5089132;28;20526;-76
2023/06/29 01:12:53;;;;;;;6.68;5.63;;;;;;;15.60;66.99;95121.78;5089486;28;20469;-76
2023/06/29 01:15:20;;;;;;;7.78;5.97;;;;;;;15.60;67.08;95123.78;5089226;28;20503;-76
2023/06/29 01:17:47;;;;;;;6.55;5.72;;;;;;;15.57;66.99;95131.00;5070805;28;20024;-76
2023/06/29 01:20:14;;;;;;;9.77;6.00;;;;;;;15.57;66.93;95127.47;5090452;28;20404;-76
2023/06/29 01:23:03;;;;;;;7.05;5.78;;;;;;;15.56;66.96;95123.19;5089138;28;20044;-75
2023/06/29 01:25:29;;;;;;;8.00;5.95;;;;;;;15.54;66.73;95120.09;5089428;28;20070;-76
2023/06/29 01:27:55;;;;;;;7.53;6.30;;;;;;;15.53;66.99;95127.63;5088707;28;20028;-76
2023/06/29 01:30:21;;;;;;;8.18;6.10;;;;;;;15.52;67.04;95123.31;5089398;28;20099;-76
2023/06/29 01:32:47;;;;;;;8.70;6.20;;;;;;;15.53;67.03;95119.31;5090888;28;20024;-76
2023/06/29 01:35:12;;;;;;;7.72;6.30;;;;;;;15.51;66.99;95112.72;5089271;28;20055;-76
2023/06/29 01:37:51;;;;;;;7.93;6.22;;;;;;;15.52;67.01;95119.78;5089319;28;20012;-76
2023/06/29 01:40:18;;;;;;;8.10;6.40;;;;;;;15.47;67.02;95118.41;5088552;28;20043;-77
2023/06/29 01:42:44;;;;;;;7.35;6.28;;;;;;;15.49;66.28;95117.97;5088181;28;20490;-76
2023/06/29 01:45:10;;;;;;;8.45;6.22;;;;;;;15.47;66.37;95117.63;5090590;28;20024;-76
2023/06/29 01:47:36;;;;;;;7.00;6.18;;;;;;;15.37;66.00;95119.69;5088625;28;20028;-77
2023/06/29 01:50:02;;;;;;;8.48;6.68;;;;;;;15.30;66.19;95117.97;5088442;28;20538;-76
2023/06/29 01:52:27;;;;;;;8.20;6.63;;;;;;;15.27;66.50;95113.38;5087450;28;20028;-77
2023/06/29 01:54:53;;;;;;;7.97;6.90;;;;;;;15.28;66.80;95112.13;5089590;28;20032;-76
2023/06/29 01:57:18;;;;;;;7.85;6.10;;;;;;;15.25;66.80;95113.03;5089192;28;20111;-76
2023/06/29 01:59:45;;;;;;;8.55;6.72;;;;;;;15.20;66.75;95110.91;5089298;28;20235;-76
2023/06/29 02:02:10;;;;;;;7.72;6.82;;;;;;;15.25;67.00;95112.28;5089192;28;20155;-76
2023/06/29 02:04:36;;;;;;;7.50;6.43;;;;;;;15.19;66.74;95120.44;5088611;28;20107;-77
2023/06/29 02:07:01;;;;;;;9.65;6.40;;;;;;;15.19;66.69;95120.44;5089223;28;20020;-75
2023/06/29 02:09:27;;;;;;;8.95;6.93;;;;;;;15.18;66.60;95120.91;5088107;28;20020;-76
2023/06/29 02:11:52;;;;;;;7.68;6.57;;;;;;;15.14;66.50;95116.31;5089008;28;20028;-76
2023/06/29 02:14:18;;;;;;;9.73;6.70;;;;;;;15.10;66.85;95118.47;5088176;28;20417;-77
2023/06/29 02:16:47;;;;;;;8.20;6.65;;;;;;;15.09;66.89;95119.69;5089294;28;20024;-77
2023/06/29 02:19:12;;;;;;;7.68;6.45;;;;;;;15.10;66.79;95121.22;5087548;28;20611;-76
2023/06/29 02:21:38;;;;;;;8.88;6.88;;;;;;;15.06;66.59;95126.13;5088202;28;20127;-76
2023/06/29 02:24:04;;;;;;;8.25;7.35;;;;;;;15.01;66.40;95120.44;5088996;28;20371;-75
2023/06/29 02:26:29;;;;;;;7.07;6.38;;;;;;;15.02;66.29;95114.44;5086570;28;20040;-76
2023/06/29 02:28:54;;;;;;;7.80;6.05;;;;;;;14.82;66.05;95109.38;5088758;28;20494;-76
2023/06/29 02:31:20;;;;;;;7.72;6.63;;;;;;;14.84;66.30;95123.50;5087669;28;20031;-76
2023/06/29 02:33:45;;;;;;;8.88;6.55;;;;;;;14.75;66.49;95111.69;5089032;28;20031;-76
2023/06/29 02:36:11;;;;;;;8.73;6.28;;;;;;;14.72;67.02;95116.13;5087625;28;20406;-76
2023/06/29 02:38:37;;;;;;;9.45;6.72;;;;;;;14.71;66.75;95113.81;5088749;28;20492;-77
2023/06/29 02:41:02;;;;;;;7.68;6.55;;;;;;;14.72;66.87;95113.34;5088713;28;20060;-76
2023/06/29 02:43:27;;;;;;;8.80;6.65;;;;;;;14.71;66.85;95111.81;5088532;28;20526;-76
2023/06/29 02:45:53;;;;;;;7.50;6.30;;;;;;;14.55;67.20;95112.09;5088939;28;20077;-76
2023/06/29 02:48:18;;;;;;;8.40;6.90;;;;;;;14.56;67.21;95119.16;5087926;28;20032;-77
2023/06/29 02:50:44;;;;;;;9.13;6.28;;;;;;;14.58;67.09;95119.50;5089003;28;20032;-76
2023/06/29 02:53:11;;;;;;;9.25;6.43;;;;;;;14.54;66.43;95119.63;5085823;28;20084;-76
2023/06/29 02:55:37;;;;;;;8.35;6.72;;;;;;;14.42;67.35;95120.50;5088723;28;20486;-76
2023/06/29 02:58:02;;;;;;;10.50;6.75;;;;;;;14.41;67.32;95121.72;5087567;28;20028;-75
2023/06/29 03:00:28;;;;;;;9.15;6.65;;;;;;;14.44;67.59;95126.34;5087695;28;20024;-76
2023/06/29 03:02:53;;;;;;;10.15;7.10;;;;;;;14.49;67.47;95127.75;5088207;28;20085;-76
2023/06/29 03:05:18;;;;;;;8.25;6.97;;;;;;;14.47;67.30;95119.94;5087291;28;20085;-76
2023/06/29 03:07:44;;;;;;;8.23;7.30;;;;;;;14.53;67.22;95131.16;5088415;28;20458;-75
2023/06/29 03:10:09;;;;;;;9.00;6.88;;;;;;;14.54;67.36;95130.69;5087009;28;20453;-76
2023/06/29 03:12:35;;;;;;;8.25;7.45;;;;;;;14.55;67.30;95131.47;5088318;28;20096;-76
2023/06/29 03:15:00;;;;;;;9.10;7.38;;;;;;;14.55;67.41;95135.00;5086969;28;20032;-77
2023/06/29 03:17:27;;;;;;;9.32;7.85;;;;;;;14.54;67.27;95125.16;5088195;28;20016;-77
2023/06/29 03:19:52;;;;;;;11.60;8.45;;;;;;;14.57;67.21;95126.25;5087163;28;20370;-76
2023/06/29 03:22:18;;;;;;;10.50;8.45;;;;;;;14.64;66.97;95133.50;5087560;28;20028;-77
2023/06/29 03:24:44;;;;;;;9.93;8.15;;;;;;;14.70;66.45;95131.66;5088013;28;20312;-76
2023/06/29 03:27:11;;;;;;;8.63;7.72;;;;;;;14.77;66.56;95134.13;5087366;28;20035;-77
2023/06/29 03:29:36;;;;;;;9.68;8.05;;;;;;;14.77;66.66;95134.13;5088566;28;20076;-76
2023/06/29 03:32:01;;;;;;;11.30;8.90;;;;;;;14.64;66.69;95136.25;5086560;28;20028;-77
2023/06/29 03:34:27;;;;;;;10.20;8.07;;;;;;;14.61;66.62;95140.69;5088039;28;20505;-77
2023/06/29 03:36:52;;;;;;;11.10;9.35;;;;;;;14.65;66.94;95141.31;5086933;28;20024;-77
2023/06/29 03:39:19;;;;;;;15.15;11.52;;;;;;;14.71;66.85;95139.50;5088948;28;20027;-78
2023/06/29 03:41:44;;;;;;;10.90;9.80;;;;;;;14.70;66.54;95140.72;5088330;28;20024;-78
2023/06/29 03:44:10;;;;;;;10.50;9.40;;;;;;;14.71;66.63;95145.03;5088868;28;20027;-76
2023/06/29 03:46:35;;;;;;;11.70;9.50;;;;;;;14.67;67.09;95146.41;5087653;28;20046;-75
2023/06/29 03:49:00;;;;;;;10.68;9.13;;;;;;;14.65;66.70;95146.09;5086785;28;20027;-76
2023/06/29 03:51:26;;;;;;;12.13;9.60;;;;;;;14.64;67.09;95150.09;5087653;28;20131;-76
2023/06/29 03:53:51;;;;;;;10.57;9.25;;;;;;;14.67;67.16;95146.41;5085031;28;20131;-76
2023/06/29 03:56:16;;;;;;;11.55;9.52;;;;;;;14.69;66.82;95153.03;5088045;28;20068;-76
2023/06/29 03:58:42;;;;;;;10.45;9.32;;;;;;;14.66;66.82;95151.16;5086647;28;20024;-77
2023/06/29 04:01:07;;;;;;;11.10;9.80;;;;;;;14.69;66.68;95153.03;5086756;28;20135;-76
2023/06/29 04:03:33;;;;;;;11.52;8.88;;;;;;;14.77;66.13;95147.97;5087404;28;20482;-76
2023/06/29 04:05:59;;;;;;;11.73;8.98;;;;;;;14.79;66.25;95151.03;5068106;28;20464;-76
2023/06/29 04:08:24;;;;;;;10.32;9.05;;;;;;;14.78;66.41;95157.78;5087684;28;20032;-76
2023/06/29 04:10:50;;;;;;;11.32;9.50;;;;;;;14.78;66.66;95157.78;5085520;28;20104;-77
2023/06/29 04:13:15;;;;;;;12.43;9.65;;;;;;;14.79;66.60;95153.78;5087418;28;20029;-77
2023/06/29 04:15:41;;;;;;;11.98;10.25;;;;;;;14.77;66.54;95157.03;5086343;28;20743;-77
2023/06/29 04:18:07;;;;;;;11.32;9.50;;;;;;;14.77;66.38;95153.50;5087405;28;20107;-77
2023/06/29 04:20:32;;;;;;;13.00;10.57;;;;;;;14.77;66.41;95156.25;5086875;28;20462;-76
2023/06/29 04:22:58;;;;;;;11.88;10.13;;;;;;;14.72;66.84;95143.03;5086813;28;20562;-77
2023/06/29 04:25:23;;;;;;;11.75;9.50;;;;;;;14.76;66.75;95152.72;5087345;28;20039;-76
2023/06/29 04:27:49;;;;;;;12.40;10.10;;;;;;;14.75;66.72;95150.41;5086589;28;20398;-77
2023/06/29 04:30:17;;;;;;;11.27;9.40;;;;;;;14.80;66.40;95158.13;5087702;28;20508;-77
2023/06/29 04:32:43;;;;;;;11.57;8.75;;;;;;;14.84;66.10;95159.50;5086048;28;20411;-77
2023/06/29 04:35:09;;;;;;;10.52;9.32;;;;;;;14.86;66.37;95154.28;5087108;28;20028;-77
2023/06/29 04:37:41;;;;;;;13.25;10.38;;;;;;;14.87;66.55;95155.03;5086500;28;20193;-77
2023/06/29 04:40:14;;;;;;;10.50;9.20;;;;;;;14.86;66.45;95153.50;5086618;28;20077;-77
2023/06/29 04:42:46;;;;;;;12.50;9.87;;;;;;;14.86;66.22;95153.50;5087288;28;20043;-77
2023/06/29 04:45:17;;;;;;;10.55;9.45;;;;;;;14.89;66.35;95158.13;5086731;28;20024;-77
2023/06/29 04:47:46;;;;;;;13.52;10.10;;;;;;;14.97;66.59;95161.38;5087615;28;20020;-78
2023/06/29 04:50:13;;;;;;;13.02;10.23;;;;;;;15.03;65.65;95157.53;5086106;28;20387;-76
2023/06/29 04:52:38;;;;;;;25.02;11.63;;;;;;;15.04;65.63;95158.28;5087405;28;20482;-75
2023/06/29 04:55:04;;;;;;;12.10;9.43;;;;;;;15.10;65.34;95159.22;5086234;28;20082;-76
2023/06/29 04:57:30;;;;;;;10.63;9.35;;;;;;;15.11;64.88;95158.75;5087216;28;20028;-77
2023/06/29 04:59:56;;;;;;;11.82;9.57;;;;;;;15.20;64.96;95171.06;5089717;28;20030;-77
2023/06/29 05:02:21;;;;;;;11.68;9.73;;;;;;;15.24;64.79;95160.59;5089676;28;20048;-77
2023/06/29 05:04:48;;;;;;;12.05;9.85;;;;;;;15.27;65.25;95165.22;5089294;28;20030;-77
2023/06/29 05:07:13;;;;;;;12.18;9.68;;;;;;;15.35;64.74;95171.97;5089107;28;20464;-77
2023/06/29 05:09:38;;;;;;;11.93;10.23;;;;;;;15.36;64.97;95171.50;5090557;28;20020;-78
2023/06/29 05:12:04;;;;;;;11.30;9.95;;;;;;;15.39;65.11;95175.38;5087961;28;20482;-78
2023/06/29 05:14:30;;;;;;;12.15;10.65;;;;;;;15.48;64.38;95171.81;5090244;28;20032;-77
2023/06/29 05:16:57;;;;;;;11.60;9.82;;;;;;;15.44;64.03;95182.28;5089396;28;20028;-78
2023/06/29 05:19:22;;;;;;;11.23;9.57;;;;;;;15.46;63.95;95175.06;5089769;28;20030;-76
2023/06/29 05:21:47;;;;;;;12.20;9.93;;;;;;;15.46;63.62;95183.38;5090211;28;20036;-77
2023/06/29 05:24:13;;;;;;;11.90;10.00;;;;;;;15.47;63.53;95182.13;5087795;28;20390;-76
2023/06/29 05:26:38;;;;;;;11.32;9.48;;;;;;;15.51;63.59;95187.53;5090591;28;20360;-76
2023/06/29 05:29:04;;;;;;;10.63;9.52;;;;;;;15.56;63.41;95186.91;5088632;28;20084;-76
2023/06/29 05:31:29;;;;;;;11.13;9.82;;;;;;;15.59;63.03;95183.19;5090469;28;20095;-76
2023/06/29 05:33:54;;;;;;;11.20;9.95;;;;;;;15.64;63.11;95188.91;5088764;28;20415;-75
2023/06/29 05:36:20;;;;;;;13.10;10.75;;;;;;;15.65;62.79;95192.44;5089596;28;20039;-78
2023/06/29 05:38:45;;;;;;;11.68;9.77;;;;;;;15.65;62.67;95189.69;5089872;28;20032;-76
2023/06/29 05:41:11;;;;;;;14.30;9.95;;;;;;;15.67;62.65;95192.78;5087161;28;20181;-77
2023/06/29 05:43:36;;;;;;;11.85;9.32;;;;;;;15.65;62.59;95187.69;5089780;28;20017;-76
2023/06/29 05:46:02;;;;;;;11.98;10.23;;;;;;;15.70;62.79;95191.06;5088464;28;20111;-77
2023/06/29 05:48:27;;;;;;;13.27;9.60;;;;;;;15.76;62.50;95189.97;5088693;28;20024;-76
2023/06/29 05:50:53;;;;;;;12.85;9.27;;;;;;;15.79;62.25;95177.19;5088648;28;20024;-76
2023/06/29 05:53:18;;;;;;;10.50;9.38;;;;;;;15.90;61.95;95191.34;5089766;28;20582;-78
2023/06/29 05:55:44;;;;;;;11.68;9.15;;;;;;;16.03;61.29;95196.69;5088972;28;20043;-82
2023/06/29 05:58:09;;;;;;;10.52;9.00;;;;;;;16.08;61.33;95190.53;5089352;28;20028;-81
2023/06/29 06:00:34;;;;;;;11.82;9.75;;;;;;;16.08;61.58;95201.63;5089772;28;20028;-82
2023/06/29 06:03:00;;;;;;;10.45;9.32;;;;;;;16.20;61.41;95193.09;5088400;28;20466;-81
2023/06/29 06:05:25;;;;;;;12.93;9.00;;;;;;;16.32;60.97;95196.16;5089810;28;20021;-82
2023/06/29 06:07:50;;;;;;;10.52;8.20;;;;;;;16.37;61.49;95193.50;5088159;28;20478;-83
2023/06/29 06:10:16;;;;;;;10.27;8.98;;;;;;;16.43;61.05;95204.72;5089205;28;20024;-83
2023/06/29 06:12:41;;;;;;;9.98;8.88;;;;;;;16.51;60.48;95200.38;5088447;28;20032;-81
2023/06/29 06:15:11;;;;;;;11.13;9.20;;;;;;;16.53;60.96;95197.91;5088636;28;20020;-81
2023/06/29 06:17:36;;;;;;;11.23;8.90;;;;;;;16.46;60.66;95195.47;5089039;28;20020;-82
2023/06/29 06:20:04;;;;;;;11.63;9.85;;;;;;;16.52;61.05;95201.16;5088134;28;20387;-81
2023/06/29 06:22:30;;;;;;;13.50;9.65;;;;;;;16.54;60.76;95196.66;5087682;28;20020;-81
2023/06/29 06:24:55;;;;;;;13.38;9.48;;;;;;;16.56;61.04;95196.19;5088076;28;20026;-81
2023/06/29 06:27:21;;;;;;;11.70;9.00;;;;;;;16.62;60.48;95189.53;5088897;28;20028;-81
2023/06/29 06:29:46;;;;;;;10.63;9.50;;;;;;;16.65;60.67;95191.38;5087780;28;20091;-81
2023/06/29 06:32:11;;;;;;;12.20;9.55;;;;;;;16.64;60.56;95197.41;5088711;28;20024;-81
2023/06/29 06:34:37;;;;;;;11.60;8.95;;;;;;;16.67;60.17;95188.13;5088165;28;20571;-82
2023/06/29 06:37:03;;;;;;;10.43;9.32;;;;;;;16.69;60.43;95196.75;5088418;28;20020;-83
2023/06/29 06:39:32;;;;;;;12.63;9.63;;;;;;;16.78;59.75;95201.50;5087282;28;20085;-83
2023/06/29 06:41:58;;;;;;;12.75;9.35;;;;;;;16.81;60.27;95186.69;5087512;28;20024;-82
2023/06/29 06:44:23;;;;;;;13.02;9.02;;;;;;;16.85;59.63;95198.38;5089102;28;20020;-82
2023/06/29 06:46:49;;;;;;;10.25;8.82;;;;;;;16.90;59.47;95189.41;5087406;28;20035;-83
2023/06/29 06:49:14;;;;;;;10.45;9.13;;;;;;;16.92;59.50;95195.28;5089295;28;20016;-85
2023/06/29 06:51:40;;;;;;;9.80;8.68;;;;;;;16.95;59.62;95186.00;5092808;28;20046;-82
2023/06/29 06:54:05;;;;;;;11.73;8.55;;;;;;;17.01;59.13;95192.44;5090068;28;20073;-83
2023/06/29 06:56:31;;;;;;;12.82;9.27;;;;;;;16.97;58.88;95172.38;5089323;28;20401;-83
2023/06/29 06:58:56;;;;;;;14.50;10.82;;;;;;;17.06;59.05;95188.22;5087610;28;20020;-79
2023/06/29 07:01:22;;;;;;;13.57;9.48;;;;;;;17.11;58.46;95185.56;5088487;28;20165;-84
2023/06/29 07:03:48;;;;;;;10.95;8.40;;;;;;;17.15;58.50;95190.97;5088900;28;20413;-86
2023/06/29 07:06:13;;;;;;;10.50;8.52;;;;;;;17.11;58.64;95179.25;5088832;28;20052;-84
2023/06/29 07:08:38;;;;;;;10.52;8.55;;;;;;;17.15;59.13;95188.94;5087869;28;20024;-83
2023/06/29 07:11:04;;;;;;;12.85;8.15;;;;;;;17.21;58.69;95186.28;5087918;28;20535;-84
2023/06/29 07:13:29;;;;;;;9.20;6.82;;;;;;;17.29;56.84;95186.69;5088279;28;20360;-83
2023/06/29 07:15:56;;;;;;;7.28;6.28;;;;;;;17.29;56.29;95183.91;5088609;28;20636;-78
2023/06/29 07:18:21;;;;;;;7.60;6.68;;;;;;;17.32;57.21;95180.16;5090128;28;20020;-80
2023/06/29 07:20:48;;;;;;;8.27;6.82;;;;;;;17.45;56.78;95192.56;5068597;28;20047;-80
2023/06/29 07:23:15;;;;;;;8.77;7.40;;;;;;;17.56;56.65;95191.25;5090518;28;20023;-78
2023/06/29 07:25:41;;;;;;;8.00;6.28;;;;;;;17.56;56.25;95185.69;5089565;28;20106;-79
2023/06/29 07:28:06;;;;;;;8.40;6.78;;;;;;;17.61;56.97;95188.59;5088604;28;20020;-78
2023/06/29 07:30:32;;;;;;;11.90;6.70;;;;;;;17.65;56.38;95180.03;5088513;28;20032;-80
2023/06/29 07:32:57;;;;;;;11.68;5.50;;;;;;;17.72;55.87;95188.81;5085925;28;20032;-73
2023/06/29 07:35:22;;;;;;;7.57;6.47;;;;;;;17.83;55.84;95187.47;5087333;28;20414;-77
2023/06/29 07:37:48;;;;;;;10.48;6.10;;;;;;;17.90;56.38;95184.31;5086606;28;20032;-78
2023/06/29 07:40:14;;;;;;;8.07;6.35;;;;;;;17.98;56.10;95171.56;5087204;28;20028;-75
2023/06/29 07:42:39;;;;;;;7.47;6.05;;;;;;;18.10;55.52;95181.63;5086799;28;20024;-76
2023/06/29 07:45:08;;;;;;;6.63;5.78;;;;;;;18.16;55.34;95179.69;5087772;28;20024;-72
2023/06/29 07:47:33;;;;;;;7.50;6.22;;;;;;;18.22;54.19;95177.78;5086793;28;20016;-77
2023/06/29 07:49:59;;;;;;;7.75;5.10;;;;;;;18.31;54.11;95183.25;5085427;28;20514;-80
2023/06/29 07:52:25;;;;;;;6.25;4.93;;;;;;;18.37;53.55;95185.34;5087177;28;20016;-79
2023/06/29 07:54:50;;;;;;;5.78;5.10;;;;;;;18.44;53.88;95177.38;5087447;28;20394;-80
2023/06/29 07:57:16;;;;;;;8.38;4.90;;;;;;;18.55;53.85;95174.00;5087926;28;20028;-78
2023/06/29 07:59:41;;;;;;;6.20;4.70;;;;;;;18.56;53.52;95172.72;5087010;28;20543;-79
2023/06/29 08:02:07;;;;;;;7.07;5.82;;;;;;;18.63;54.22;95169.53;5087006;28;20047;-77
2023/06/29 08:04:32;;;;;;;8.18;5.60;;;;;;;18.76;53.07;95167.25;5086672;28;20467;-78
2023/06/29 08:06:58;;;;;;;8.80;4.80;;;;;;;18.84;53.06;95167.59;5087251;28;20031;-77
2023/06/29 08:09:24;;;;;;;8.38;4.22;;;;;;;18.81;50.79;95174.91;5086484;28;20066;-79
2023/06/29 08:11:49;;;;;;;5.30;4.18;;;;;;;18.83;51.66;95174.41;5087091;28;20111;-78
2023/06/29 08:14:15;;;;;;;6.20;4.40;;;;;;;18.92;51.81;95174.28;5087023;28;20020;-79
2023/06/29 08:16:40;;;;;;;6.40;4.28;;;;;;;19.01;52.45;95167.81;5086601;28;20024;-78
2023/06/29 08:19:06;;;;;;;7.68;5.28;;;;;;;19.15;51.96;95178.13;5085767;28;20035;-78
2023/06/29 08:21:31;;;;;;;5.70;4.55;;;;;;;19.18;52.17;95176.41;5086253;28;20055;-78
2023/06/29 08:23:56;;;;;;;6.38;5.30;;;;;;;19.29;51.29;95168.19;5087376;28;20028;-79
2023/06/29 08:26:22;;;;;;;5.70;4.25;;;;;;;19.32;51.17;95169.97;5086145;28;20028;-79
2023/06/29 08:28:47;;;;;;;6.85;5.18;;;;;;;19.43;51.56;95163.75;5087160;28;20096;-77
2023/06/29 08:31:13;;;;;;;5.95;4.80;;;;;;;19.50;51.86;95166.91;5086235;28;20024;-78
2023/06/29 08:33:39;;;;;;;6.85;4.68;;;;;;;19.63;51.58;95164.53;5088432;28;20028;-77
2023/06/29 08:36:04;;;;;;;8.43;4.40;;;;;;;19.69;51.54;95169.41;5090536;28;20067;-78
2023/06/29 08:38:30;;;;;;;65.57;49.35;;;;;;;19.81;50.94;95169.03;5078748;28;20032;-89
2023/06/29 08:40:59;;;;;;;8.32;6.43;;;;;;;19.93;48.67;95169.91;5070554;28;20040;-87
2023/06/29 08:43:24;;;;;;;16.05;12.93;;;;;;;20.00;48.52;95163.09;5069511;28;20091;-86
2023/06/29 08:45:50;;;;;;;5.45;4.20;;;;;;;20.07;48.84;95160.66;5071226;28;20481;-82
2023/06/29 08:48:17;;;;;;;7.60;3.80;;;;;;;20.12;49.44;95164.72;5069937;28;20020;-84
2023/06/29 08:50:51;;;;;;;4.63;3.90;;;;;;;20.19;48.58;95157.97;5070762;28;20021;-87
2023/06/29 08:53:17;;;;;;;7.30;6.05;;;;;;;20.29;48.92;95159.28;5069437;28;20035;-81
2023/06/29 08:55:43;;;;;;;6.70;5.03;;;;;;;20.39;48.63;95160.66;5068830;28;20037;-82
2023/06/29 08:58:08;;;;;;;6.85;4.55;;;;;;;20.50;48.05;95157.97;5079417;28;20029;-79
2023/06/29 09:00:34;;;;;;;8.20;3.97;;;;;;;;;;5070503;28;20036;-78
2023/06/29 09:03:00;;;;;;;4.70;3.40;;;;;;;20.62;47.50;95156.78;5070811;28;20028;-78
2023/06/29 09:05:26;;;;;;;4.88;3.33;;;;;;;20.74;47.03;95152.03;5068224;28;20045;-79
2023/06/29 09:07:53;;;;;;;3.97;3.38;;;;;;;20.79;46.35;95151.28;5068946;28;20024;-79
2023/06/29 09:10:18;;;;;;;3.40;3.00;;;;;;;20.80;45.72;95138.84;5070097;28;20131;-78
2023/06/29 09:12:44;;;;;;;4.10;3.33;;;;;;;20.88;46.61;95142.72;5068369;28;20046;-78
2023/06/29 09:15:10;;;;;;;5.40;3.80;;;;;;;21.00;46.97;95146.34;5068880;28;20043;-79
2023/06/29 09:17:36;;;;;;;6.15;3.58;;;;;;;21.14;45.89;95141.81;5069398;28;20021;-77
2023/06/29 09:20:13;;;;;;;6.90;4.53;;;;;;;21.29;45.83;95138.84;5069946;28;20017;-78
2023/06/29 09:22:39;;;;;;;11.10;8.90;;;;;;;21.46;46.31;95137.66;5069428;28;20036;-78
2023/06/29 09:25:05;;;;;;;12.50;9.75;;;;;;;21.59;45.90;95134.38;5068432;28;20085;-78
2023/06/29 09:27:33;;;;;;;6.70;4.95;;;;;;;21.77;44.33;95129.59;5070188;28;20036;-78
2023/06/29 09:30:00;;;;;;;25.15;22.42;;;;;;;21.82;43.72;95132.38;5069208;28;20028;-78
2023/06/29 09:32:28;;;;;;;8.93;4.97;;;;;;;21.93;44.00;95124.00;5069970;28;20486;-79
2023/06/29 09:34:53;;;;;;;4.43;3.30;;;;;;;21.98;43.11;95126.06;5068994;28;20028;-82
2023/06/29 09:37:19;;;;;;;9.90;4.75;;;;;;;22.04;43.30;95128.84;5070841;28;20479;-82
2023/06/29 09:39:57;;;;;;;9.25;4.80;;;;;;;22.18;42.40;95127.09;5068465;28;20027;-80
2023/06/29 09:42:23;;;;;;;6.68;3.83;;;;;;;22.16;41.86;95130.41;5069544;28;20037;-84
2023/06/29 09:44:48;;;;;;;5.85;4.20;;;;;;;22.18;41.81;95129.91;5069427;28;20545;-85
2023/06/29 09:47:14;;;;;;;4.65;2.67;;;;;;;22.24;41.30;95127.84;5050969;28;20021;-84
2023/06/29 09:49:47;;;;;;;4.25;3.30;;;;;;;22.31;41.37;95120.97;5069975;28;20157;-84
2023/06/29 09:52:17;;;;;;;3.45;2.60;;;;;;;22.42;41.49;95130.16;5066909;28;20032;-79
2023/06/29 09:54:43;;;;;;;4.03;2.50;;;;;;;22.47;41.58;95123.78;5069852;28;20301;-79
2023/06/29 09:57:12;;;;;;;5.72;3.20;;;;;;;22.62;41.42;95129.09;5067408;28;20051;-79
2023/06/29 09:59:41;;;;;;;5.50;3.45;;;;;;;22.76;41.62;95128.03;5069933;28;20052;-88
2023/06/29 10:02:10;;;;;;;6.07;2.60;;;;;;;22.91;41.34;95125.00;5075130;28;20071;-87
2023/06/29 10:04:36;;;;;;;4.72;2.78;;;;;;;22.95;40.98;95119.91;5072418;28;20039;-83
2023/06/29 10:07:12;;;;;;;3.42;2.85;;;;;;;23.05;39.85;95120.34;5069487;28;20029;-83
2023/06/29 10:09:40;;;;;;;4.57;2.70;;;;;;;23.00;39.72;95121.91;5067555;28;20530;-92
2023/06/29 10:12:07;;;;;;;2.92;2.50;;;;;;;23.16;39.38;95116.75;5073080;28;20495;-80
2023/06/29 10:14:33;;;;;;;3.78;2.97;;;;;;;23.22;38.92;95117.50;5083407;28;20498;-92
2023/06/29 10:17:00;;;;;;;4.15;2.50;;;;;;;23.31;37.38;95108.78;5079542;28;20039;-89
2023/06/29 10:19:26;;;;;;;3.03;2.35;;;;;;;23.26;37.09;95092.75;5056262;28;20031;-93
2023/06/29 10:22:13;;;;;;;4.70;3.03;;;;;;;23.37;38.56;95087.09;5075097;28;20032;-91
2023/06/29 10:25:19;;;;;;;4.95;3.15;;;;;;;23.49;39.70;95101.81;5075938;28;20037;-94
2023/06/29 10:27:45;;;;;;;4.30;2.63;;;;;;;23.45;39.44;95090.84;5063584;28;20029;-91
2023/06/29 10:30:11;;;;;;;4.35;2.72;;;;;;;23.64;37.88;95090.28;5038189;28;20075;-93
2023/06/29 10:32:38;;;;;;;3.58;2.45;;;;;;;23.74;37.20;95091.47;5069439;28;20039;-92
2023/06/29 10:35:09;;;;;;;7.93;3.28;;;;;;;23.99;37.11;95093.09;5051337;28;20036;-83
2023/06/29 10:37:41;;;;;;;5.38;3.03;;;;;;;24.16;37.10;95092.22;5067559;28;20051;-91
2023/06/29 10:40:10;;;;;;;4.97;3.25;;;;;;;24.34;37.18;95088.72;5070116;28;20062;-91
2023/06/29 10:42:38;;;;;;;5.25;2.92;;;;;;;24.48;36.90;95087.59;5089738;28;20036;-90
2023/06/29 10:45:19;;;;;;;3.25;2.92;;;;;;;24.66;36.38;95088.97;5087681;28;20089;-93
2023/06/29 10:47:53;;;;;;;4.28;2.75;;;;;;;24.85;35.57;95089.78;5093639;28;20502;-87
2023/06/29 10:50:21;;;;;;;5.78;3.25;;;;;;;25.02;35.02;95089.59;5091090;28;20040;-82
2023/06/29 10:52:47;;;;;;;4.60;2.40;;;;;;;25.15;34.85;95086.13;5085424;28;20047;-84
2023/06/29 10:55:25;;;;;;;3.75;2.42;;;;;;;25.30;33.30;95080.09;5067669;28;20027;-87
2023/06/29 10:58:29;;;;;;;4.28;2.33;;;;;;;25.46;33.58;95081.13;5067411;28;20119;-83
2023/06/29 11:00:55;;;;;;;4.25;2.30;;;;;;;25.55;33.27;95086.41;5070457;28;20093;-86
2023/06/29 11:03:22;;;;;;;3.13;2.60;;;;;;;25.49;32.00;95075.22;5088133;28;20559;-79
2023/06/29 11:05:49;;;;;;;4.03;2.33;;;;;;;25.67;32.89;95082.13;5068002;28;20033;-76
2023/06/29 11:08:14;;;;;;;3.83;2.50;;;;;;;25.73;32.11;95080.00;5068729;28;20055;-79
2023/06/29 11:10:40;;;;;;;3.65;1.90;;;;;;;25.85;32.05;95080.59;5067302;28;20490;-79
2023/06/29 11:13:09;;;;;;;2.97;1.83;;;;;;;25.98;31.25;95063.00;5067806;28;20020;-81
2023/06/29 11:15:35;;;;;;;3.42;2.72;;;;;;;26.05;32.23;95082.88;5067189;28;20024;-79
2023/06/29 11:18:08;;;;;;;4.05;2.75;;;;;;;26.17;32.40;95069.38;5067556;28;20048;-78
2023/06/29 11:20:37;;;;;;;4.72;2.53;;;;;;;26.33;32.23;95073.97;5067135;28;20039;-79
2023/06/29 11:23:02;;;;;;;3.92;2.55;;;;;;;26.51;31.72;95066.75;5067021;28;20039;-79
2023/06/29 11:25:29;;;;;;;4.07;2.30;;;;;;;26.62;31.00;95066.56;5067479;28;20024;-78
2023/06/29 11:27:55;;;;;;;6.20;2.95;;;;;;;26.77;30.80;95071.66;5066665;28;20024;-84
2023/06/29 11:30:20;;;;;;;4.55;2.13;;;;;;;26.81;30.69;95069.28;5066172;28;20028;-79